Weather at Kawama Airport

Public forecast

Using degrees Celsius for public forecast. Weather courtesy of forecast.io.

Closest aviation weather report (METAR) to Kawama Airport

Closest report is Juan Gualberto Gomez International Airport, 9.1 nm (16.9 km) SW. Retrieved 2020/12/01 16:50 UTC (47 minutes ago):

MUVR 011650Z 02012KT 9000 BKN020 21/16 Q1019

Closest aviation forecast (TAF) to Kawama Airport

Closest forecast is Juan Gualberto Gomez International Airport, 9.1 nm (16.9 km) SW. Retrieved 2020/12/01 12:03 UTC (6 hours ago):

TAF MUVR 011100Z 0112/0212 02012KT 9000 SCT020 BECMG 0201/0203 VRB03KT